sensor_id;sensor_type;location;lat;lon;timestamp;P1;durP1;ratioP1;P2;durP2;ratioP2
18659;SDS011;9459;50.254;19.014;2022-10-13T00:00:48;72.40;;;37.92;;
18659;SDS011;9459;50.254;19.014;2022-10-13T00:03:29;80.28;;;38.03;;
18659;SDS011;9459;50.254;19.014;2022-10-13T00:05:59;73.47;;;38.78;;
18659;SDS011;9459;50.254;19.014;2022-10-13T00:08:27;78.15;;;39.47;;
18659;SDS011;9459;50.254;19.014;2022-10-13T00:10:55;69.28;;;38.50;;
18659;SDS011;9459;50.254;19.014;2022-10-13T00:13:26;78.65;;;41.47;;
18659;SDS011;9459;50.254;19.014;2022-10-13T00:15:54;77.15;;;41.13;;
18659;SDS011;9459;50.254;19.014;2022-10-13T00:18:23;72.35;;;38.08;;
18659;SDS011;9459;50.254;19.014;2022-10-13T00:20:51;71.72;;;38.40;;
18659;SDS011;9459;50.254;19.014;2022-10-13T00:23:20;75.43;;;39.28;;
18659;SDS011;9459;50.254;19.014;2022-10-13T00:25:49;75.20;;;38.28;;
18659;SDS011;9459;50.254;19.014;2022-10-13T00:28:18;70.93;;;38.95;;
18659;SDS011;9459;50.254;19.014;2022-10-13T00:30:46;71.63;;;38.95;;
18659;SDS011;9459;50.254;19.014;2022-10-13T00:33:15;70.70;;;37.17;;
18659;SDS011;9459;50.254;19.014;2022-10-13T00:35:44;77.47;;;38.78;;
18659;SDS011;9459;50.254;19.014;2022-10-13T00:38:14;76.20;;;38.80;;
18659;SDS011;9459;50.254;19.014;2022-10-13T00:40:44;76.22;;;40.45;;
18659;SDS011;9459;50.254;19.014;2022-10-13T00:43:15;73.85;;;37.53;;
18659;SDS011;9459;50.254;19.014;2022-10-13T00:45:44;82.70;;;41.93;;
18659;SDS011;9459;50.254;19.014;2022-10-13T00:50:46;76.87;;;41.67;;
18659;SDS011;9459;50.254;19.014;2022-10-13T00:53:15;76.32;;;39.35;;
18659;SDS011;9459;50.254;19.014;2022-10-13T00:55:47;72.45;;;37.67;;
18659;SDS011;9459;50.254;19.014;2022-10-13T00:58:17;74.75;;;36.60;;
18659;SDS011;9459;50.254;19.014;2022-10-13T01:00:47;69.47;;;36.22;;
18659;SDS011;9459;50.254;19.014;2022-10-13T01:03:17;78.07;;;42.55;;
18659;SDS011;9459;50.254;19.014;2022-10-13T01:05:46;74.40;;;42.85;;
18659;SDS011;9459;50.254;19.014;2022-10-13T01:08:15;86.43;;;45.92;;
18659;SDS011;9459;50.254;19.014;2022-10-13T01:10:49;86.88;;;49.70;;
18659;SDS011;9459;50.254;19.014;2022-10-13T01:13:25;75.68;;;44.22;;
18659;SDS011;9459;50.254;19.014;2022-10-13T01:15:56;69.50;;;37.85;;
18659;SDS011;9459;50.254;19.014;2022-10-13T01:18:29;73.03;;;38.03;;
18659;SDS011;9459;50.254;19.014;2022-10-13T01:21:05;62.35;;;35.65;;
18659;SDS011;9459;50.254;19.014;2022-10-13T01:29:50;51.63;;;26.00;;
18659;SDS011;9459;50.254;19.014;2022-10-13T01:35:30;45.83;;;25.13;;
18659;SDS011;9459;50.254;19.014;2022-10-13T01:38:06;43.60;;;23.92;;
18659;SDS011;9459;50.254;19.014;2022-10-13T01:40:38;47.80;;;25.80;;
18659;SDS011;9459;50.254;19.014;2022-10-13T01:43:10;47.45;;;24.73;;
18659;SDS011;9459;50.254;19.014;2022-10-13T01:45:41;44.75;;;24.00;;
18659;SDS011;9459;50.254;19.014;2022-10-13T01:48:13;45.60;;;26.00;;
18659;SDS011;9459;50.254;19.014;2022-10-13T01:50:42;42.60;;;24.45;;
18659;SDS011;9459;50.254;19.014;2022-10-13T01:53:10;47.17;;;24.73;;
18659;SDS011;9459;50.254;19.014;2022-10-13T01:55:47;46.20;;;25.50;;
18659;SDS011;9459;50.254;19.014;2022-10-13T01:58:16;49.00;;;25.67;;
18659;SDS011;9459;50.254;19.014;2022-10-13T02:00:49;53.08;;;25.33;;
18659;SDS011;9459;50.254;19.014;2022-10-13T02:03:22;45.08;;;23.58;;
18659;SDS011;9459;50.254;19.014;2022-10-13T02:05:55;43.70;;;23.42;;
18659;SDS011;9459;50.254;19.014;2022-10-13T02:08:28;44.13;;;23.35;;
18659;SDS011;9459;50.254;19.014;2022-10-13T02:11:00;41.35;;;23.00;;
18659;SDS011;9459;50.254;19.014;2022-10-13T02:13:32;39.50;;;22.92;;
18659;SDS011;9459;50.254;19.014;2022-10-13T02:16:03;35.72;;;20.83;;
18659;SDS011;9459;50.254;19.014;2022-10-13T02:18:32;38.20;;;21.20;;
18659;SDS011;9459;50.254;19.014;2022-10-13T02:21:01;39.75;;;21.17;;
18659;SDS011;9459;50.254;19.014;2022-10-13T02:23:30;37.28;;;20.65;;
18659;SDS011;9459;50.254;19.014;2022-10-13T02:25:58;38.00;;;20.75;;
18659;SDS011;9459;50.254;19.014;2022-10-13T02:28:27;42.45;;;20.15;;
18659;SDS011;9459;50.254;19.014;2022-10-13T02:30:56;34.42;;;19.17;;
18659;SDS011;9459;50.254;19.014;2022-10-13T02:33:25;37.25;;;20.02;;
18659;SDS011;9459;50.254;19.014;2022-10-13T02:35:54;36.75;;;19.83;;
18659;SDS011;9459;50.254;19.014;2022-10-13T02:38:22;33.80;;;19.30;;
18659;SDS011;9459;50.254;19.014;2022-10-13T02:40:51;36.33;;;18.90;;
18659;SDS011;9459;50.254;19.014;2022-10-13T02:43:20;38.03;;;19.48;;
18659;SDS011;9459;50.254;19.014;2022-10-13T02:45:48;38.58;;;19.35;;
18659;SDS011;9459;50.254;19.014;2022-10-13T02:48:17;36.78;;;19.77;;
18659;SDS011;9459;50.254;19.014;2022-10-13T02:50:46;35.67;;;19.17;;
18659;SDS011;9459;50.254;19.014;2022-10-13T02:53:15;39.58;;;18.90;;
18659;SDS011;9459;50.254;19.014;2022-10-13T02:55:43;49.03;;;24.30;;
18659;SDS011;9459;50.254;19.014;2022-10-13T02:58:11;48.35;;;23.92;;
18659;SDS011;9459;50.254;19.014;2022-10-13T03:00:40;47.80;;;24.08;;
18659;SDS011;9459;50.254;19.014;2022-10-13T03:03:08;42.45;;;21.30;;
18659;SDS011;9459;50.254;19.014;2022-10-13T03:05:36;38.22;;;19.40;;
18659;SDS011;9459;50.254;19.014;2022-10-13T03:08:06;37.95;;;19.48;;
18659;SDS011;9459;50.254;19.014;2022-10-13T03:10:34;40.58;;;20.27;;
18659;SDS011;9459;50.254;19.014;2022-10-13T03:13:02;36.95;;;18.70;;
18659;SDS011;9459;50.254;19.014;2022-10-13T03:15:31;41.03;;;20.30;;
18659;SDS011;9459;50.254;19.014;2022-10-13T03:17:59;34.67;;;19.45;;
18659;SDS011;9459;50.254;19.014;2022-10-13T03:20:27;38.92;;;19.23;;
18659;SDS011;9459;50.254;19.014;2022-10-13T03:22:56;32.03;;;18.75;;
18659;SDS011;9459;50.254;19.014;2022-10-13T03:25:25;37.03;;;19.20;;
18659;SDS011;9459;50.254;19.014;2022-10-13T03:27:55;35.92;;;20.08;;
18659;SDS011;9459;50.254;19.014;2022-10-13T03:30:23;39.70;;;20.50;;
18659;SDS011;9459;50.254;19.014;2022-10-13T03:32:52;37.40;;;19.80;;
18659;SDS011;9459;50.254;19.014;2022-10-13T03:35:20;39.33;;;20.08;;
18659;SDS011;9459;50.254;19.014;2022-10-13T03:37:48;32.72;;;19.05;;
18659;SDS011;9459;50.254;19.014;2022-10-13T03:40:17;37.80;;;20.27;;
18659;SDS011;9459;50.254;19.014;2022-10-13T03:42:46;43.35;;;20.45;;
18659;SDS011;9459;50.254;19.014;2022-10-13T03:45:15;39.60;;;19.48;;
18659;SDS011;9459;50.254;19.014;2022-10-13T03:47:43;41.67;;;21.48;;
18659;SDS011;9459;50.254;19.014;2022-10-13T03:50:12;37.47;;;20.73;;
18659;SDS011;9459;50.254;19.014;2022-10-13T03:52:40;31.60;;;19.00;;
18659;SDS011;9459;50.254;19.014;2022-10-13T03:55:08;40.58;;;19.55;;
18659;SDS011;9459;50.254;19.014;2022-10-13T03:57:37;38.33;;;20.90;;
18659;SDS011;9459;50.254;19.014;2022-10-13T04:00:07;37.97;;;20.27;;
18659;SDS011;9459;50.254;19.014;2022-10-13T04:02:36;37.65;;;19.45;;
18659;SDS011;9459;50.254;19.014;2022-10-13T04:05:06;41.95;;;20.33;;
18659;SDS011;9459;50.254;19.014;2022-10-13T04:07:35;40.85;;;21.13;;
18659;SDS011;9459;50.254;19.014;2022-10-13T04:10:03;37.75;;;20.00;;
18659;SDS011;9459;50.254;19.014;2022-10-13T04:12:37;41.97;;;21.40;;
18659;SDS011;9459;50.254;19.014;2022-10-13T04:15:07;37.15;;;20.90;;
18659;SDS011;9459;50.254;19.014;2022-10-13T04:17:36;40.47;;;21.25;;
18659;SDS011;9459;50.254;19.014;2022-10-13T04:20:05;36.45;;;20.02;;
18659;SDS011;9459;50.254;19.014;2022-10-13T04:22:34;39.05;;;20.30;;
18659;SDS011;9459;50.254;19.014;2022-10-13T04:25:03;41.60;;;21.90;;
18659;SDS011;9459;50.254;19.014;2022-10-13T04:27:32;45.35;;;25.02;;
18659;SDS011;9459;50.254;19.014;2022-10-13T04:30:04;38.15;;;21.13;;
18659;SDS011;9459;50.254;19.014;2022-10-13T04:32:39;34.38;;;19.55;;
18659;SDS011;9459;50.254;19.014;2022-10-13T04:35:07;35.20;;;21.77;;
18659;SDS011;9459;50.254;19.014;2022-10-13T04:37:36;35.72;;;19.92;;
18659;SDS011;9459;50.254;19.014;2022-10-13T04:40:10;36.97;;;19.02;;
18659;SDS011;9459;50.254;19.014;2022-10-13T04:42:39;39.13;;;20.77;;
18659;SDS011;9459;50.254;19.014;2022-10-13T04:45:08;32.35;;;18.88;;
18659;SDS011;9459;50.254;19.014;2022-10-13T04:47:37;34.75;;;19.60;;
18659;SDS011;9459;50.254;19.014;2022-10-13T04:50:05;41.53;;;21.52;;
18659;SDS011;9459;50.254;19.014;2022-10-13T04:52:34;37.08;;;20.75;;
18659;SDS011;9459;50.254;19.014;2022-10-13T04:55:03;30.98;;;18.40;;
18659;SDS011;9459;50.254;19.014;2022-10-13T04:57:32;38.95;;;19.52;;
18659;SDS011;9459;50.254;19.014;2022-10-13T05:00:00;36.72;;;17.95;;
18659;SDS011;9459;50.254;19.014;2022-10-13T05:02:34;41.20;;;21.40;;
18659;SDS011;9459;50.254;19.014;2022-10-13T05:05:03;38.78;;;20.42;;
18659;SDS011;9459;50.254;19.014;2022-10-13T05:07:32;44.08;;;21.83;;
18659;SDS011;9459;50.254;19.014;2022-10-13T05:10:01;36.15;;;20.20;;
18659;SDS011;9459;50.254;19.014;2022-10-13T05:12:30;44.67;;;21.33;;
18659;SDS011;9459;50.254;19.014;2022-10-13T05:14:58;43.75;;;22.10;;
18659;SDS011;9459;50.254;19.014;2022-10-13T05:17:27;51.25;;;24.67;;
18659;SDS011;9459;50.254;19.014;2022-10-13T05:20:02;51.45;;;24.90;;
18659;SDS011;9459;50.254;19.014;2022-10-13T05:22:31;48.15;;;22.95;;
18659;SDS011;9459;50.254;19.014;2022-10-13T05:24:59;42.45;;;23.20;;
18659;SDS011;9459;50.254;19.014;2022-10-13T05:27:28;139.70;;;74.45;;
18659;SDS011;9459;50.254;19.014;2022-10-13T05:29:56;50.85;;;27.40;;
18659;SDS011;9459;50.254;19.014;2022-10-13T05:32:24;35.83;;;21.17;;
18659;SDS011;9459;50.254;19.014;2022-10-13T05:34:53;40.40;;;23.27;;
18659;SDS011;9459;50.254;19.014;2022-10-13T05:37:22;40.47;;;22.30;;
18659;SDS011;9459;50.254;19.014;2022-10-13T05:39:51;54.55;;;27.75;;
18659;SDS011;9459;50.254;19.014;2022-10-13T05:42:19;46.53;;;23.50;;
18659;SDS011;9459;50.254;19.014;2022-10-13T05:44:48;41.00;;;22.80;;
18659;SDS011;9459;50.254;19.014;2022-10-13T05:47:16;42.33;;;22.60;;
18659;SDS011;9459;50.254;19.014;2022-10-13T05:49:45;38.38;;;21.38;;
18659;SDS011;9459;50.254;19.014;2022-10-13T05:52:13;39.22;;;21.08;;
18659;SDS011;9459;50.254;19.014;2022-10-13T05:54:43;44.60;;;23.38;;
18659;SDS011;9459;50.254;19.014;2022-10-13T05:57:14;43.97;;;23.10;;
18659;SDS011;9459;50.254;19.014;2022-10-13T05:59:44;52.53;;;25.70;;
18659;SDS011;9459;50.254;19.014;2022-10-13T06:02:14;46.03;;;23.23;;
18659;SDS011;9459;50.254;19.014;2022-10-13T06:04:45;42.72;;;20.73;;
18659;SDS011;9459;50.254;19.014;2022-10-13T06:07:16;38.30;;;22.60;;
18659;SDS011;9459;50.254;19.014;2022-10-13T06:09:45;37.25;;;23.23;;
18659;SDS011;9459;50.254;19.014;2022-10-13T06:12:14;45.35;;;24.52;;
18659;SDS011;9459;50.254;19.014;2022-10-13T06:14:43;45.10;;;25.95;;
18659;SDS011;9459;50.254;19.014;2022-10-13T06:17:11;36.42;;;22.50;;
18659;SDS011;9459;50.254;19.014;2022-10-13T06:19:39;42.50;;;23.70;;
18659;SDS011;9459;50.254;19.014;2022-10-13T06:22:08;39.17;;;24.23;;
18659;SDS011;9459;50.254;19.014;2022-10-13T06:24:36;37.47;;;22.42;;
18659;SDS011;9459;50.254;19.014;2022-10-13T06:27:06;33.58;;;20.40;;
18659;SDS011;9459;50.254;19.014;2022-10-13T06:29:34;34.70;;;19.35;;
18659;SDS011;9459;50.254;19.014;2022-10-13T06:32:03;35.63;;;19.42;;
18659;SDS011;9459;50.254;19.014;2022-10-13T06:34:31;30.13;;;18.95;;
18659;SDS011;9459;50.254;19.014;2022-10-13T06:37:00;36.60;;;20.50;;
18659;SDS011;9459;50.254;19.014;2022-10-13T06:39:28;35.13;;;19.25;;
18659;SDS011;9459;50.254;19.014;2022-10-13T06:41:57;33.08;;;18.92;;
18659;SDS011;9459;50.254;19.014;2022-10-13T06:44:26;35.45;;;18.15;;
18659;SDS011;9459;50.254;19.014;2022-10-13T06:46:55;30.02;;;18.23;;
18659;SDS011;9459;50.254;19.014;2022-10-13T06:49:23;31.88;;;18.20;;
18659;SDS011;9459;50.254;19.014;2022-10-13T06:51:52;30.80;;;18.15;;
18659;SDS011;9459;50.254;19.014;2022-10-13T06:54:20;27.48;;;15.15;;
18659;SDS011;9459;50.254;19.014;2022-10-13T06:56:49;30.58;;;17.58;;
18659;SDS011;9459;50.254;19.014;2022-10-13T06:59:17;23.50;;;15.30;;
18659;SDS011;9459;50.254;19.014;2022-10-13T07:01:48;27.83;;;15.50;;
18659;SDS011;9459;50.254;19.014;2022-10-13T07:04:17;32.23;;;17.40;;
18659;SDS011;9459;50.254;19.014;2022-10-13T07:06:45;29.65;;;16.27;;
18659;SDS011;9459;50.254;19.014;2022-10-13T07:09:14;32.20;;;15.85;;
18659;SDS011;9459;50.254;19.014;2022-10-13T07:11:42;30.75;;;15.35;;
18659;SDS011;9459;50.254;19.014;2022-10-13T07:14:11;25.90;;;16.27;;
18659;SDS011;9459;50.254;19.014;2022-10-13T07:16:40;26.75;;;15.38;;
18659;SDS011;9459;50.254;19.014;2022-10-13T07:19:09;27.60;;;16.05;;
18659;SDS011;9459;50.254;19.014;2022-10-13T07:21:38;30.85;;;15.90;;
18659;SDS011;9459;50.254;19.014;2022-10-13T07:24:06;27.45;;;14.60;;
18659;SDS011;9459;50.254;19.014;2022-10-13T07:26:35;27.73;;;15.45;;
18659;SDS011;9459;50.254;19.014;2022-10-13T07:29:03;23.00;;;15.40;;
18659;SDS011;9459;50.254;19.014;2022-10-13T07:31:32;27.27;;;15.93;;
18659;SDS011;9459;50.254;19.014;2022-10-13T07:34:00;24.92;;;15.68;;
18659;SDS011;9459;50.254;19.014;2022-10-13T07:36:31;20.52;;;13.70;;
18659;SDS011;9459;50.254;19.014;2022-10-13T07:39:01;21.98;;;15.10;;
18659;SDS011;9459;50.254;19.014;2022-10-13T07:41:30;25.35;;;14.95;;
18659;SDS011;9459;50.254;19.014;2022-10-13T07:43:58;21.38;;;13.18;;
18659;SDS011;9459;50.254;19.014;2022-10-13T07:46:26;18.13;;;11.15;;
18659;SDS011;9459;50.254;19.014;2022-10-13T07:48:56;18.05;;;12.68;;
18659;SDS011;9459;50.254;19.014;2022-10-13T07:51:24;22.73;;;13.18;;
18659;SDS011;9459;50.254;19.014;2022-10-13T07:53:53;18.00;;;11.18;;
18659;SDS011;9459;50.254;19.014;2022-10-13T07:56:22;17.15;;;10.77;;
18659;SDS011;9459;50.254;19.014;2022-10-13T07:58:50;15.90;;;10.70;;
18659;SDS011;9459;50.254;19.014;2022-10-13T08:01:18;17.27;;;12.00;;
18659;SDS011;9459;50.254;19.014;2022-10-13T08:03:47;18.00;;;12.10;;
18659;SDS011;9459;50.254;19.014;2022-10-13T08:06:16;18.20;;;12.23;;
18659;SDS011;9459;50.254;19.014;2022-10-13T08:08:44;20.92;;;12.13;;
18659;SDS011;9459;50.254;19.014;2022-10-13T08:11:14;25.05;;;15.85;;
18659;SDS011;9459;50.254;19.014;2022-10-13T08:13:46;27.10;;;16.02;;
18659;SDS011;9459;50.254;19.014;2022-10-13T08:16:16;18.98;;;12.23;;
18659;SDS011;9459;50.254;19.014;2022-10-13T08:18:44;23.15;;;13.20;;
18659;SDS011;9459;50.254;19.014;2022-10-13T08:21:14;24.45;;;13.38;;
18659;SDS011;9459;50.254;19.014;2022-10-13T08:24:04;26.85;;;17.38;;
18659;SDS011;9459;50.254;19.014;2022-10-13T08:26:34;21.30;;;14.52;;
18659;SDS011;9459;50.254;19.014;2022-10-13T08:29:02;28.95;;;18.50;;
18659;SDS011;9459;50.254;19.014;2022-10-13T08:31:49;16.52;;;10.32;;
18659;SDS011;9459;50.254;19.014;2022-10-13T08:34:19;14.60;;;10.20;;
18659;SDS011;9459;50.254;19.014;2022-10-13T08:36:47;18.17;;;11.38;;
18659;SDS011;9459;50.254;19.014;2022-10-13T08:39:19;21.52;;;12.75;;
18659;SDS011;9459;50.254;19.014;2022-10-13T08:41:50;13.55;;;10.25;;
18659;SDS011;9459;50.254;19.014;2022-10-13T08:44:20;31.33;;;22.13;;
18659;SDS011;9459;50.254;19.014;2022-10-13T08:47:12;25.80;;;18.25;;
18659;SDS011;9459;50.254;19.014;2022-10-13T08:49:45;17.73;;;10.98;;
18659;SDS011;9459;50.254;19.014;2022-10-13T08:52:15;15.30;;;10.15;;
18659;SDS011;9459;50.254;19.014;2022-10-13T08:54:45;15.07;;;11.23;;
18659;SDS011;9459;50.254;19.014;2022-10-13T08:57:15;15.68;;;10.82;;
18659;SDS011;9459;50.254;19.014;2022-10-13T08:59:45;13.52;;;9.27;;
18659;SDS011;9459;50.254;19.014;2022-10-13T09:02:14;20.10;;;10.50;;
18659;SDS011;9459;50.254;19.014;2022-10-13T09:04:49;19.20;;;11.27;;
18659;SDS011;9459;50.254;19.014;2022-10-13T09:07:20;14.93;;;9.52;;
18659;SDS011;9459;50.254;19.014;2022-10-13T09:09:51;14.65;;;10.10;;
18659;SDS011;9459;50.254;19.014;2022-10-13T09:12:22;12.10;;;8.82;;
18659;SDS011;9459;50.254;19.014;2022-10-13T09:14:55;12.43;;;9.57;;
18659;SDS011;9459;50.254;19.014;2022-10-13T09:17:27;20.38;;;9.82;;
18659;SDS011;9459;50.254;19.014;2022-10-13T09:22:27;16.42;;;10.20;;
18659;SDS011;9459;50.254;19.014;2022-10-13T09:27:45;14.25;;;9.50;;
18659;SDS011;9459;50.254;19.014;2022-10-13T09:33:19;16.27;;;10.73;;
18659;SDS011;9459;50.254;19.014;2022-10-13T09:35:48;14.48;;;10.25;;
18659;SDS011;9459;50.254;19.014;2022-10-13T09:38:33;19.10;;;16.20;;
18659;SDS011;9459;50.254;19.014;2022-10-13T09:41:02;15.68;;;9.43;;
18659;SDS011;9459;50.254;19.014;2022-10-13T09:43:35;16.65;;;13.85;;
18659;SDS011;9459;50.254;19.014;2022-10-13T09:46:10;14.55;;;9.90;;
18659;SDS011;9459;50.254;19.014;2022-10-13T09:48:39;16.58;;;10.90;;
18659;SDS011;9459;50.254;19.014;2022-10-13T09:51:25;16.52;;;10.52;;
18659;SDS011;9459;50.254;19.014;2022-10-13T09:54:04;14.18;;;10.60;;
18659;SDS011;9459;50.254;19.014;2022-10-13T09:56:36;13.48;;;9.63;;
18659;SDS011;9459;50.254;19.014;2022-10-13T09:59:11;14.32;;;9.27;;
18659;SDS011;9459;50.254;19.014;2022-10-13T10:01:54;12.40;;;8.32;;
18659;SDS011;9459;50.254;19.014;2022-10-13T10:04:27;11.68;;;9.00;;
18659;SDS011;9459;50.254;19.014;2022-10-13T10:06:57;17.77;;;12.02;;
18659;SDS011;9459;50.254;19.014;2022-10-13T10:09:29;15.02;;;10.43;;
18659;SDS011;9459;50.254;19.014;2022-10-13T10:12:02;12.40;;;8.50;;
18659;SDS011;9459;50.254;19.014;2022-10-13T10:14:33;10.18;;;8.30;;
18659;SDS011;9459;50.254;19.014;2022-10-13T10:17:04;14.38;;;8.18;;
18659;SDS011;9459;50.254;19.014;2022-10-13T10:19:43;11.50;;;8.50;;
18659;SDS011;9459;50.254;19.014;2022-10-13T10:22:22;12.57;;;8.40;;
18659;SDS011;9459;50.254;19.014;2022-10-13T10:24:58;9.82;;;7.50;;
18659;SDS011;9459;50.254;19.014;2022-10-13T10:27:31;10.95;;;7.97;;
18659;SDS011;9459;50.254;19.014;2022-10-13T10:30:13;12.60;;;8.02;;
18659;SDS011;9459;50.254;19.014;2022-10-13T10:32:45;13.48;;;8.45;;
18659;SDS011;9459;50.254;19.014;2022-10-13T10:35:18;13.02;;;7.78;;
18659;SDS011;9459;50.254;19.014;2022-10-13T10:37:52;10.38;;;7.88;;
18659;SDS011;9459;50.254;19.014;2022-10-13T10:40:31;11.38;;;7.40;;
18659;SDS011;9459;50.254;19.014;2022-10-13T10:43:13;10.10;;;7.07;;
18659;SDS011;9459;50.254;19.014;2022-10-13T10:45:50;8.45;;;6.75;;
18659;SDS011;9459;50.254;19.014;2022-10-13T10:48:23;11.32;;;7.03;;
18659;SDS011;9459;50.254;19.014;2022-10-13T10:50:53;14.35;;;7.63;;
18659;SDS011;9459;50.254;19.014;2022-10-13T10:53:25;9.43;;;6.73;;
18659;SDS011;9459;50.254;19.014;2022-10-13T10:55:57;9.02;;;6.60;;
18659;SDS011;9459;50.254;19.014;2022-10-13T10:58:32;9.25;;;6.25;;
18659;SDS011;9459;50.254;19.014;2022-10-13T11:01:12;7.38;;;5.53;;
18659;SDS011;9459;50.254;19.014;2022-10-13T11:03:48;8.20;;;5.80;;
18659;SDS011;9459;50.254;19.014;2022-10-13T11:06:22;8.52;;;5.30;;
18659;SDS011;9459;50.254;19.014;2022-10-13T11:08:53;6.88;;;5.10;;
18659;SDS011;9459;50.254;19.014;2022-10-13T11:11:28;7.57;;;4.88;;
18659;SDS011;9459;50.254;19.014;2022-10-13T11:17:14;7.68;;;4.88;;
18659;SDS011;9459;50.254;19.014;2022-10-13T11:19:45;7.45;;;4.78;;
18659;SDS011;9459;50.254;19.014;2022-10-13T11:24:51;7.27;;;4.20;;
18659;SDS011;9459;50.254;19.014;2022-10-13T11:29:54;6.80;;;4.70;;
18659;SDS011;9459;50.254;19.014;2022-10-13T11:32:42;5.13;;;3.80;;
18659;SDS011;9459;50.254;19.014;2022-10-13T11:35:22;4.63;;;3.90;;
18659;SDS011;9459;50.254;19.014;2022-10-13T11:38:00;6.15;;;3.70;;
18659;SDS011;9459;50.254;19.014;2022-10-13T11:40:38;8.18;;;4.55;;
18659;SDS011;9459;50.254;19.014;2022-10-13T11:43:19;6.63;;;4.25;;
18659;SDS011;9459;50.254;19.014;2022-10-13T11:46:00;7.68;;;4.25;;
18659;SDS011;9459;50.254;19.014;2022-10-13T11:48:53;9.25;;;4.43;;
18659;SDS011;9459;50.254;19.014;2022-10-13T11:51:41;7.72;;;5.50;;
18659;SDS011;9459;50.254;19.014;2022-10-13T11:54:18;19.35;;;14.23;;
18659;SDS011;9459;50.254;19.014;2022-10-13T11:56:51;14.27;;;9.55;;
18659;SDS011;9459;50.254;19.014;2022-10-13T11:59:21;8.43;;;6.35;;
18659;SDS011;9459;50.254;19.014;2022-10-13T12:01:52;5.95;;;3.90;;
18659;SDS011;9459;50.254;19.014;2022-10-13T12:04:23;8.65;;;5.05;;
18659;SDS011;9459;50.254;19.014;2022-10-13T12:06:54;7.88;;;4.60;;
18659;SDS011;9459;50.254;19.014;2022-10-13T12:09:24;9.45;;;6.90;;
18659;SDS011;9459;50.254;19.014;2022-10-13T12:14:25;10.15;;;6.10;;
18659;SDS011;9459;50.254;19.014;2022-10-13T12:16:58;9.23;;;6.57;;
18659;SDS011;9459;50.254;19.014;2022-10-13T12:19:30;11.50;;;6.93;;
18659;SDS011;9459;50.254;19.014;2022-10-13T12:24:28;10.25;;;6.97;;
18659;SDS011;9459;50.254;19.014;2022-10-13T12:26:57;12.30;;;6.72;;
18659;SDS011;9459;50.254;19.014;2022-10-13T12:29:26;14.60;;;8.43;;
18659;SDS011;9459;50.254;19.014;2022-10-13T12:32:01;11.73;;;6.95;;
18659;SDS011;9459;50.254;19.014;2022-10-13T12:34:33;12.00;;;7.78;;
18659;SDS011;9459;50.254;19.014;2022-10-13T12:37:03;8.40;;;6.15;;
18659;SDS011;9459;50.254;19.014;2022-10-13T12:39:32;11.82;;;7.35;;
18659;SDS011;9459;50.254;19.014;2022-10-13T12:42:02;9.20;;;7.22;;
18659;SDS011;9459;50.254;19.014;2022-10-13T12:44:30;15.63;;;9.07;;
18659;SDS011;9459;50.254;19.014;2022-10-13T12:46:59;10.55;;;8.10;;
18659;SDS011;9459;50.254;19.014;2022-10-13T12:49:30;17.30;;;9.40;;
18659;SDS011;9459;50.254;19.014;2022-10-13T12:52:04;12.32;;;8.93;;
18659;SDS011;9459;50.254;19.014;2022-10-13T12:54:35;16.85;;;10.00;;
18659;SDS011;9459;50.254;19.014;2022-10-13T12:57:11;13.80;;;9.60;;
18659;SDS011;9459;50.254;19.014;2022-10-13T12:59:43;13.68;;;8.98;;
18659;SDS011;9459;50.254;19.014;2022-10-13T13:02:17;11.77;;;8.98;;
18659;SDS011;9459;50.254;19.014;2022-10-13T13:04:48;16.15;;;10.80;;
18659;SDS011;9459;50.254;19.014;2022-10-13T13:07:28;15.00;;;10.45;;
18659;SDS011;9459;50.254;19.014;2022-10-13T13:10:01;16.05;;;10.32;;
18659;SDS011;9459;50.254;19.014;2022-10-13T13:12:40;14.43;;;9.55;;
18659;SDS011;9459;50.254;19.014;2022-10-13T13:15:20;16.30;;;10.93;;
18659;SDS011;9459;50.254;19.014;2022-10-13T13:23:19;14.82;;;10.43;;
18659;SDS011;9459;50.254;19.014;2022-10-13T13:25:58;15.63;;;10.18;;
18659;SDS011;9459;50.254;19.014;2022-10-13T13:28:27;13.63;;;10.10;;
18659;SDS011;9459;50.254;19.014;2022-10-13T13:30:56;13.75;;;10.48;;
18659;SDS011;9459;50.254;19.014;2022-10-13T13:33:24;18.35;;;11.70;;
18659;SDS011;9459;50.254;19.014;2022-10-13T13:35:53;16.92;;;11.65;;
18659;SDS011;9459;50.254;19.014;2022-10-13T13:38:23;15.60;;;11.25;;
18659;SDS011;9459;50.254;19.014;2022-10-13T13:40:51;13.88;;;10.43;;
18659;SDS011;9459;50.254;19.014;2022-10-13T13:43:19;14.00;;;11.10;;
18659;SDS011;9459;50.254;19.014;2022-10-13T13:45:48;14.20;;;11.00;;
18659;SDS011;9459;50.254;19.014;2022-10-13T13:48:16;13.43;;;9.55;;
18659;SDS011;9459;50.254;19.014;2022-10-13T13:50:44;15.73;;;11.13;;
18659;SDS011;9459;50.254;19.014;2022-10-13T13:53:13;16.98;;;11.00;;
18659;SDS011;9459;50.254;19.014;2022-10-13T13:55:42;14.95;;;10.35;;
18659;SDS011;9459;50.254;19.014;2022-10-13T13:58:11;16.85;;;9.85;;
18659;SDS011;9459;50.254;19.014;2022-10-13T14:00:39;16.15;;;9.57;;
18659;SDS011;9459;50.254;19.014;2022-10-13T14:03:08;15.00;;;9.15;;
18659;SDS011;9459;50.254;19.014;2022-10-13T14:05:37;15.07;;;11.02;;
18659;SDS011;9459;50.254;19.014;2022-10-13T14:08:06;18.00;;;10.70;;
18659;SDS011;9459;50.254;19.014;2022-10-13T14:10:34;15.35;;;10.98;;
18659;SDS011;9459;50.254;19.014;2022-10-13T14:13:04;15.30;;;10.27;;
18659;SDS011;9459;50.254;19.014;2022-10-13T14:15:32;16.00;;;10.20;;
18659;SDS011;9459;50.254;19.014;2022-10-13T14:18:00;17.80;;;11.43;;
18659;SDS011;9459;50.254;19.014;2022-10-13T14:20:29;17.52;;;11.95;;
18659;SDS011;9459;50.254;19.014;2022-10-13T14:22:57;14.35;;;10.15;;
18659;SDS011;9459;50.254;19.014;2022-10-13T14:25:25;15.40;;;11.45;;
18659;SDS011;9459;50.254;19.014;2022-10-13T14:27:53;16.73;;;11.27;;
18659;SDS011;9459;50.254;19.014;2022-10-13T14:30:23;14.95;;;9.77;;
18659;SDS011;9459;50.254;19.014;2022-10-13T14:32:51;14.18;;;11.27;;
18659;SDS011;9459;50.254;19.014;2022-10-13T14:35:19;16.75;;;11.45;;
18659;SDS011;9459;50.254;19.014;2022-10-13T14:37:48;15.15;;;11.43;;
18659;SDS011;9459;50.254;19.014;2022-10-13T14:40:16;15.02;;;12.63;;
18659;SDS011;9459;50.254;19.014;2022-10-13T14:42:45;18.17;;;12.50;;
18659;SDS011;9459;50.254;19.014;2022-10-13T14:45:13;17.80;;;10.98;;
18659;SDS011;9459;50.254;19.014;2022-10-13T14:47:43;17.30;;;13.27;;
18659;SDS011;9459;50.254;19.014;2022-10-13T14:50:12;18.95;;;12.20;;
18659;SDS011;9459;50.254;19.014;2022-10-13T14:52:40;19.15;;;12.88;;
18659;SDS011;9459;50.254;19.014;2022-10-13T14:55:08;17.35;;;12.52;;
18659;SDS011;9459;50.254;19.014;2022-10-13T14:57:37;16.55;;;12.60;;
18659;SDS011;9459;50.254;19.014;2022-10-13T15:00:05;14.60;;;11.35;;
18659;SDS011;9459;50.254;19.014;2022-10-13T15:02:36;17.48;;;12.18;;
18659;SDS011;9459;50.254;19.014;2022-10-13T15:05:06;19.63;;;11.68;;
18659;SDS011;9459;50.254;19.014;2022-10-13T15:07:35;13.45;;;10.10;;
18659;SDS011;9459;50.254;19.014;2022-10-13T15:10:07;17.90;;;12.30;;
18659;SDS011;9459;50.254;19.014;2022-10-13T15:12:35;14.07;;;11.93;;
18659;SDS011;9459;50.254;19.014;2022-10-13T15:15:04;17.35;;;11.70;;
18659;SDS011;9459;50.254;19.014;2022-10-13T15:17:32;17.35;;;12.00;;
18659;SDS011;9459;50.254;19.014;2022-10-13T15:20:02;16.95;;;11.68;;
18659;SDS011;9459;50.254;19.014;2022-10-13T15:22:33;16.13;;;12.35;;
18659;SDS011;9459;50.254;19.014;2022-10-13T15:25:01;19.23;;;12.88;;